createdAt,value
2022-09-03T00:00:53.172Z,17.39
2022-09-03T00:03:23.308Z,17.33
2022-09-03T00:05:51.795Z,17.32
2022-09-03T00:08:21.560Z,17.35
2022-09-03T00:10:59.958Z,17.35
2022-09-03T00:13:35.390Z,17.40
2022-09-03T00:16:03.909Z,17.31
2022-09-03T00:18:31.846Z,17.37
2022-09-03T00:21:08.533Z,17.24
2022-09-03T00:23:38.199Z,17.27
2022-09-03T00:26:11.579Z,17.15
2022-09-03T00:28:41.982Z,17.09
2022-09-03T00:31:21.373Z,17.18
2022-09-03T00:33:49.375Z,17.31
2022-09-03T00:36:18.240Z,17.20
2022-09-03T00:38:45.731Z,17.20
2022-09-03T00:41:23.039Z,17.08
2022-09-03T00:43:59.645Z,17.20
2022-09-03T00:46:41.952Z,17.17
2022-09-03T00:49:09.395Z,17.22
2022-09-03T00:51:59.437Z,17.11
2022-09-03T00:54:33.216Z,17.06
2022-09-03T00:57:15.451Z,16.93
2022-09-03T01:00:09.086Z,17.03
2022-09-03T01:02:57.546Z,16.98
2022-09-03T01:05:40.584Z,16.83
2022-09-03T01:08:33.797Z,17.05
2022-09-03T01:11:26.240Z,16.84
2022-09-03T01:14:02.654Z,17.04
2022-09-03T01:16:36.211Z,16.82
2022-09-03T01:19:06.196Z,16.46
2022-09-03T01:21:54.058Z,16.54
2022-09-03T01:24:31.788Z,16.79
2022-09-03T01:27:20.814Z,16.64
2022-09-03T01:29:49.141Z,16.74
2022-09-03T01:32:21.475Z,16.70
2022-09-03T01:34:55.542Z,16.77
2022-09-03T01:37:30.192Z,16.74
2022-09-03T01:40:08.517Z,16.75
2022-09-03T01:42:41.891Z,16.77
2022-09-03T01:45:10.387Z,16.70
2022-09-03T01:47:40.690Z,16.75
2022-09-03T01:50:27.194Z,16.65
2022-09-03T01:52:59.756Z,16.65
2022-09-03T01:55:34.816Z,16.47
2022-09-03T01:58:20.151Z,16.55
2022-09-03T02:00:50.052Z,16.62
2022-09-03T02:03:18.169Z,16.40
2022-09-03T02:05:48.012Z,16.33
2022-09-03T02:08:15.513Z,16.39
2022-09-03T02:10:43.168Z,16.62
2022-09-03T02:13:14.052Z,16.55
2022-09-03T02:15:42.198Z,16.53
2022-09-03T02:18:42.151Z,16.41
2022-09-03T02:21:10.806Z,16.50
2022-09-03T02:23:39.549Z,16.36
2022-09-03T02:26:07.231Z,16.32
2022-09-03T02:28:34.942Z,16.39
2022-09-03T02:31:02.908Z,16.45
2022-09-03T02:33:31.465Z,16.39
2022-09-03T02:35:59.276Z,16.43
2022-09-03T02:38:26.672Z,16.41
2022-09-03T02:40:54.581Z,16.49
2022-09-03T02:43:25.953Z,16.51
2022-09-03T02:45:54.825Z,16.49
2022-09-03T02:48:23.641Z,16.46
2022-09-03T02:50:51.110Z,16.43
2022-09-03T02:53:18.674Z,16.35
2022-09-03T02:55:46.632Z,16.37
2022-09-03T02:58:13.825Z,16.45
2022-09-03T03:00:41.141Z,16.39
2022-09-03T03:03:08.830Z,16.30
2022-09-03T03:05:41.496Z,16.37
2022-09-03T03:08:09.492Z,16.27
2022-09-03T03:10:38.192Z,16.29
2022-09-03T03:13:05.597Z,16.25
2022-09-03T03:15:33.257Z,16.26
2022-09-03T03:18:00.641Z,16.40
2022-09-03T03:20:28.085Z,16.32
2022-09-03T03:22:56.135Z,16.22
2022-09-03T03:25:23.523Z,16.11
2022-09-03T03:27:50.944Z,16.19
2022-09-03T03:30:19.402Z,16.25
2022-09-03T03:32:47.329Z,16.23
2022-09-03T03:35:15.001Z,16.17
2022-09-03T03:37:43.169Z,16.10
2022-09-03T03:40:10.826Z,16.08
2022-09-03T03:42:38.083Z,16.06
2022-09-03T03:45:06.536Z,16.15
2022-09-03T03:47:33.955Z,16.02
2022-09-03T03:50:01.309Z,16.08
2022-09-03T03:52:28.969Z,15.93
2022-09-03T03:54:57.313Z,15.86
2022-09-03T03:57:24.674Z,15.94
2022-09-03T03:59:52.224Z,15.93
2022-09-03T04:02:21.656Z,15.86
2022-09-03T04:04:49.332Z,15.88
2022-09-03T04:07:16.712Z,15.86
2022-09-03T04:09:44.114Z,15.97
2022-09-03T04:12:11.941Z,15.78
2022-09-03T04:14:39.687Z,15.81
2022-09-03T04:17:06.932Z,15.94
2022-09-03T04:19:34.508Z,15.88
2022-09-03T04:22:02.217Z,15.82
2022-09-03T04:24:30.067Z,15.87
2022-09-03T04:26:57.849Z,16.00
2022-09-03T04:29:25.811Z,15.75
2022-09-03T04:32:11.997Z,15.79
2022-09-03T04:34:39.545Z,15.72
2022-09-03T04:37:12.664Z,15.68
2022-09-03T04:39:40.545Z,15.82
2022-09-03T04:42:07.964Z,15.81
2022-09-03T04:44:38.403Z,15.76
2022-09-03T04:47:06.444Z,15.78
2022-09-03T04:49:34.640Z,15.98
2022-09-03T04:52:02.992Z,15.96
2022-09-03T04:54:30.611Z,16.13
2022-09-03T04:56:58.057Z,16.17
2022-09-03T04:59:25.679Z,16.34
2022-09-03T05:01:53.309Z,16.44
2022-09-03T05:04:20.600Z,16.58
2022-09-03T05:06:48.287Z,16.61
2022-09-03T05:09:15.999Z,16.74
2022-09-03T05:11:43.408Z,16.77
2022-09-03T05:14:12.724Z,16.94
2022-09-03T05:16:40.559Z,16.75
2022-09-03T05:19:08.544Z,16.73
2022-09-03T05:21:36.216Z,16.92
2022-09-03T05:24:04.224Z,17.17
2022-09-03T05:26:33.603Z,17.28
2022-09-03T05:29:01.751Z,17.22
2022-09-03T05:31:31.628Z,17.27
2022-09-03T05:34:00.604Z,17.37
2022-09-03T05:36:29.368Z,17.55
2022-09-03T05:38:58.487Z,17.70
2022-09-03T05:41:26.296Z,17.63
2022-09-03T05:43:58.804Z,17.72
2022-09-03T05:46:31.790Z,17.79
2022-09-03T05:49:03.346Z,17.90
2022-09-03T05:51:31.261Z,18.07
2022-09-03T05:53:59.047Z,18.23
2022-09-03T05:56:27.085Z,18.59
2022-09-03T05:58:56.401Z,18.59
2022-09-03T06:01:24.861Z,18.93
2022-09-03T06:03:56.700Z,19.05
2022-09-03T06:06:25.653Z,19.06
2022-09-03T06:08:58.318Z,19.29
2022-09-03T06:11:29.765Z,19.33
2022-09-03T06:13:57.748Z,19.47
2022-09-03T06:16:30.744Z,19.65
2022-09-03T06:19:00.011Z,19.72
2022-09-03T06:21:27.740Z,19.90
2022-09-03T06:23:59.479Z,19.94
2022-09-03T06:26:30.970Z,20.00
2022-09-03T06:28:58.463Z,20.35
2022-09-03T06:31:26.070Z,20.55
2022-09-03T06:33:54.669Z,20.54
2022-09-03T06:36:22.819Z,20.70
2022-09-03T06:38:54.186Z,20.84
2022-09-03T06:41:25.256Z,20.89
2022-09-03T06:43:53.478Z,20.86
2022-09-03T06:46:21.902Z,20.98
2022-09-03T06:48:51.844Z,21.16
2022-09-03T06:51:23.083Z,21.09
2022-09-03T06:53:52.592Z,21.45
2022-09-03T06:56:27.649Z,21.61
2022-09-03T06:58:56.139Z,21.60
2022-09-03T07:01:26.057Z,21.49
2022-09-03T07:03:56.897Z,21.27
2022-09-03T07:06:39.490Z,21.83
2022-09-03T07:09:07.232Z,22.29
2022-09-03T07:11:36.069Z,22.27
2022-09-03T07:14:04.602Z,22.33
2022-09-03T07:16:36.090Z,22.42
2022-09-03T07:19:04.794Z,22.57
2022-09-03T07:21:34.121Z,22.67
2022-09-03T07:24:10.917Z,22.93
2022-09-03T07:26:39.654Z,22.54
2022-09-03T07:29:07.949Z,22.43
2022-09-03T07:31:36.969Z,23.07
2022-09-03T07:34:09.952Z,22.97
2022-09-03T07:36:40.154Z,23.36
2022-09-03T07:39:09.424Z,23.48
2022-09-03T07:41:37.472Z,22.79
2022-09-03T07:44:07.947Z,23.15
2022-09-03T07:46:38.136Z,23.41
2022-09-03T07:49:06.320Z,23.32
2022-09-03T07:51:35.731Z,22.96
2022-09-03T07:54:05.784Z,23.41
2022-09-03T07:56:35.095Z,23.30
2022-09-03T07:59:03.237Z,23.57
2022-09-03T08:01:32.849Z,23.92
2022-09-03T08:04:01.455Z,23.40
2022-09-03T08:06:29.499Z,23.44
2022-09-03T08:09:04.906Z,23.64
2022-09-03T08:11:35.170Z,23.45
2022-09-03T08:14:06.365Z,24.04
2022-09-03T08:16:35.787Z,23.93
2022-09-03T08:19:03.293Z,23.94
2022-09-03T08:21:31.321Z,24.26
2022-09-03T08:24:02.772Z,24.37
2022-09-03T08:26:34.669Z,24.59
2022-09-03T08:29:03.000Z,24.24
2022-09-03T08:31:30.659Z,24.01
2022-09-03T08:33:58.912Z,23.97
2022-09-03T08:36:30.549Z,23.92
2022-09-03T08:38:59.485Z,24.34
2022-09-03T08:41:37.060Z,24.10
2022-09-03T08:44:13.763Z,24.57
2022-09-03T08:47:00.037Z,24.21
2022-09-03T08:49:34.401Z,24.76
2022-09-03T08:52:03.287Z,24.49
2022-09-03T08:54:34.766Z,24.45
2022-09-03T08:57:07.061Z,25.15
2022-09-03T08:59:34.353Z,25.41
2022-09-03T09:02:10.557Z,25.93
2022-09-03T09:04:52.994Z,25.72
2022-09-03T09:07:23.787Z,26.28
2022-09-03T09:09:58.950Z,26.62
2022-09-03T09:12:45.614Z,26.44
2022-09-03T09:15:28.935Z,25.59
2022-09-03T09:18:10.454Z,25.54
2022-09-03T09:20:41.721Z,26.38
2022-09-03T09:23:11.433Z,25.61
2022-09-03T09:25:44.411Z,25.71
2022-09-03T09:28:19.745Z,25.60
2022-09-03T09:30:48.788Z,25.84
2022-09-03T09:33:16.749Z,25.99
2022-09-03T09:35:44.974Z,26.43
2022-09-03T09:38:13.999Z,26.66
2022-09-03T09:40:44.996Z,26.03
2022-09-03T09:43:16.821Z,25.95
2022-09-03T09:45:45.881Z,26.08
2022-09-03T09:48:23.806Z,26.20
2022-09-03T09:50:55.362Z,26.50
2022-09-03T09:53:23.208Z,26.52
2022-09-03T09:55:54.793Z,26.97
2022-09-03T09:58:23.641Z,26.88
2022-09-03T10:00:56.907Z,27.51
2022-09-03T10:03:29.968Z,27.57
2022-09-03T10:05:58.984Z,27.26
2022-09-03T10:08:26.637Z,27.25
2022-09-03T10:10:54.239Z,26.94
2022-09-03T10:13:23.110Z,27.55
2022-09-03T10:16:03.554Z,27.68
2022-09-03T10:18:39.489Z,27.14
2022-09-03T10:21:11.203Z,27.64
2022-09-03T10:23:42.279Z,27.99
2022-09-03T10:26:10.517Z,28.29
2022-09-03T10:28:41.644Z,28.32
2022-09-03T10:31:29.420Z,28.00
2022-09-03T10:34:06.949Z,28.64
2022-09-03T10:36:37.083Z,29.12
2022-09-03T10:39:23.306Z,28.92
2022-09-03T10:42:11.178Z,28.40
2022-09-03T10:44:50.617Z,28.32
2022-09-03T10:47:46.868Z,28.46
2022-09-03T10:50:49.835Z,28.62
2022-09-03T10:53:57.365Z,28.55
2022-09-03T10:56:33.990Z,28.59
2022-09-03T10:59:10.869Z,28.73
2022-09-03T11:01:38.340Z,28.53
2022-09-03T11:04:39.267Z,28.55
2022-09-03T11:07:30.524Z,28.84
2022-09-03T11:10:11.766Z,29.39
2022-09-03T11:12:41.143Z,29.51
2022-09-03T11:15:40.278Z,29.63
2022-09-03T11:18:11.442Z,28.86
2022-09-03T11:20:50.811Z,28.99
2022-09-03T11:23:40.685Z,29.60
2022-09-03T11:26:12.845Z,30.13
2022-09-03T11:28:45.434Z,29.70
2022-09-03T11:31:32.780Z,29.92
2022-09-03T11:34:23.279Z,29.51
2022-09-03T11:36:51.334Z,29.30
2022-09-03T11:39:34.451Z,29.82
2022-09-03T11:42:09.168Z,29.24
2022-09-03T11:44:37.901Z,29.52
2022-09-03T11:47:23.960Z,29.32
2022-09-03T11:49:52.653Z,29.47
2022-09-03T11:52:27.566Z,29.56
2022-09-03T11:54:55.486Z,29.12
2022-09-03T11:57:30.056Z,29.14
2022-09-03T12:00:14.319Z,29.23
2022-09-03T12:02:45.352Z,29.30
2022-09-03T12:05:27.921Z,29.87
2022-09-03T12:08:32.471Z,29.44
2022-09-03T12:11:20.655Z,30.05
2022-09-03T12:14:20.615Z,30.30
2022-09-03T12:17:08.124Z,29.45
2022-09-03T12:19:56.057Z,29.46
2022-09-03T12:22:43.481Z,29.53
2022-09-03T12:25:49.647Z,29.74
2022-09-03T12:28:28.526Z,30.16
2022-09-03T12:31:21.643Z,30.18
2022-09-03T12:34:01.853Z,29.83
2022-09-03T12:36:56.481Z,29.37
2022-09-03T12:46:33.421Z,28.88
2022-09-03T12:52:01.816Z,28.65
2022-09-03T12:54:32.298Z,28.54
2022-09-03T12:56:59.726Z,27.83
2022-09-03T12:59:27.936Z,28.07
2022-09-03T13:01:56.503Z,27.86
2022-09-03T13:04:26.887Z,27.54
2022-09-03T13:07:01.368Z,28.06
2022-09-03T13:09:30.110Z,27.87
2022-09-03T13:16:15.636Z,28.97
2022-09-03T13:18:43.341Z,28.70
2022-09-03T13:21:33.945Z,28.77
2022-09-03T13:24:04.736Z,28.86
2022-09-03T13:26:44.608Z,27.94
2022-09-03T13:29:30.975Z,28.02
2022-09-03T13:32:17.247Z,27.93
2022-09-03T13:34:52.507Z,27.85
2022-09-03T13:37:27.716Z,27.66
2022-09-03T13:40:00.093Z,27.75
2022-09-03T13:42:31.384Z,27.70
2022-09-03T13:45:00.509Z,27.67
2022-09-03T13:48:09.595Z,27.48
2022-09-03T13:50:59.839Z,27.59
2022-09-03T13:53:32.404Z,27.63
2022-09-03T13:56:05.283Z,27.83
2022-09-03T13:58:42.502Z,28.06
2022-09-03T14:01:13.468Z,27.85
2022-09-03T14:03:48.801Z,27.92
2022-09-03T14:06:35.369Z,28.12
2022-09-03T14:09:02.867Z,28.33
2022-09-03T14:11:30.094Z,28.40
2022-09-03T14:13:57.300Z,28.22
2022-09-03T14:16:31.074Z,28.25
2022-09-03T14:19:13.187Z,28.16
2022-09-03T14:21:45.577Z,28.46
2022-09-03T14:24:36.867Z,28.70
2022-09-03T14:27:04.934Z,28.38
2022-09-03T14:29:36.365Z,27.88
2022-09-03T14:32:06.936Z,27.67
2022-09-03T14:34:54.934Z,28.12
2022-09-03T14:37:34.496Z,28.25
2022-09-03T14:40:13.508Z,28.08
2022-09-03T14:42:59.790Z,28.05
2022-09-03T14:45:46.327Z,27.91
2022-09-03T14:48:32.606Z,27.92
2022-09-03T14:51:03.251Z,27.84
2022-09-03T14:53:45.822Z,28.02
2022-09-03T14:56:25.329Z,28.38
2022-09-03T14:59:04.843Z,28.16
2022-09-03T15:01:38.739Z,27.79
2022-09-03T15:04:09.840Z,27.55
2022-09-03T15:06:43.646Z,27.78
2022-09-03T15:09:14.108Z,27.93
2022-09-03T15:11:53.002Z,27.51
2022-09-03T15:14:22.649Z,27.60
2022-09-03T15:16:55.800Z,27.58
2022-09-03T15:19:35.919Z,27.48
2022-09-03T15:22:22.399Z,27.46
2022-09-03T15:24:49.624Z,27.40
2022-09-03T15:27:37.480Z,27.21
2022-09-03T15:30:12.146Z,27.35
2022-09-03T15:32:50.582Z,27.21
2022-09-03T15:35:33.767Z,27.21
2022-09-03T15:38:05.828Z,27.35
2022-09-03T15:40:41.945Z,27.47
2022-09-03T15:43:11.342Z,26.93
2022-09-03T15:45:47.667Z,27.13
2022-09-03T15:48:21.715Z,27.03
2022-09-03T15:51:18.438Z,27.13
2022-09-03T15:53:50.195Z,27.13
2022-09-03T15:56:39.234Z,26.81
2022-09-03T15:59:18.549Z,27.05
2022-09-03T16:02:04.381Z,27.24
2022-09-03T16:04:39.723Z,27.14
2022-09-03T16:07:14.946Z,26.80
2022-09-03T16:10:07.627Z,26.99
2022-09-03T16:12:48.038Z,26.71
2022-09-03T16:15:16.561Z,26.40
2022-09-03T16:17:52.697Z,26.38
2022-09-03T16:20:31.580Z,26.34
2022-09-03T16:23:13.051Z,26.20
2022-09-03T16:25:46.599Z,26.49
2022-09-03T16:28:16.274Z,26.02
2022-09-03T16:30:47.215Z,26.36
2022-09-03T16:33:22.202Z,26.32
2022-09-03T16:36:08.613Z,26.27
2022-09-03T16:38:53.936Z,26.05
2022-09-03T16:41:27.641Z,26.18
2022-09-03T16:44:10.046Z,26.26
2022-09-03T16:46:44.469Z,26.29
2022-09-03T16:49:33.694Z,26.39
2022-09-03T16:52:17.546Z,26.44
2022-09-03T16:54:55.701Z,26.35
2022-09-03T16:57:33.269Z,26.31
2022-09-03T17:00:02.215Z,26.23
2022-09-03T17:02:45.739Z,26.10
2022-09-03T17:05:15.687Z,26.00
2022-09-03T17:07:50.161Z,25.90
2022-09-03T17:10:21.686Z,25.86
2022-09-03T17:12:49.214Z,25.73
2022-09-03T17:15:28.949Z,25.37
2022-09-03T17:18:08.721Z,25.31
2022-09-03T17:20:35.959Z,25.21
2022-09-03T17:23:07.136Z,25.02
2022-09-03T17:25:41.029Z,24.82
2022-09-03T17:28:25.476Z,24.82
2022-09-03T17:30:56.406Z,24.44
2022-09-03T17:33:34.676Z,24.40
2022-09-03T17:36:12.547Z,24.41
2022-09-03T17:38:43.146Z,24.41
2022-09-03T17:41:27.035Z,24.21
2022-09-03T17:44:08.919Z,24.16
2022-09-03T17:46:43.971Z,24.07
2022-09-03T17:49:14.714Z,23.94
2022-09-03T17:51:46.329Z,23.95
2022-09-03T17:54:18.420Z,23.88
2022-09-03T17:56:57.399Z,23.80
2022-09-03T17:59:30.029Z,23.75
2022-09-03T18:02:26.581Z,23.59
2022-09-03T18:05:01.778Z,23.61
2022-09-03T18:07:38.247Z,23.50
2022-09-03T18:10:09.162Z,23.36
2022-09-03T18:12:39.858Z,23.21
2022-09-03T18:15:28.612Z,23.21
2022-09-03T18:17:59.916Z,22.97
2022-09-03T18:20:55.085Z,22.85
2022-09-03T18:23:51.261Z,22.92
2022-09-03T18:26:41.980Z,22.83
2022-09-03T18:30:00.865Z,22.69
2022-09-03T18:32:48.195Z,22.53
2022-09-03T18:35:34.935Z,22.38
2022-09-03T18:38:22.043Z,22.37
2022-09-03T18:41:14.207Z,22.22
2022-09-03T18:44:15.868Z,22.38
2022-09-03T18:50:29.563Z,22.12
2022-09-03T18:53:19.927Z,22.09
2022-09-03T18:56:35.922Z,21.81
2022-09-03T18:59:21.888Z,21.84
2022-09-03T19:02:08.394Z,21.83
2022-09-03T19:05:08.809Z,21.86
2022-09-03T19:08:06.465Z,21.77
2022-09-03T19:11:11.125Z,21.78
2022-09-03T19:13:57.925Z,21.68
2022-09-03T19:16:56.705Z,21.66
2022-09-03T19:19:46.044Z,21.61
2022-09-03T19:22:32.418Z,21.51
2022-09-03T19:25:21.716Z,21.41
2022-09-03T19:28:27.070Z,21.47
2022-09-03T19:31:20.657Z,21.43
2022-09-03T19:34:22.155Z,21.28
2022-09-03T19:37:23.313Z,21.28
2022-09-03T19:40:09.454Z,21.11
2022-09-03T19:42:56.669Z,21.20
2022-09-03T19:45:42.595Z,21.04
2022-09-03T19:48:30.222Z,21.01
2022-09-03T19:51:28.799Z,21.03
2022-09-03T19:54:18.144Z,20.85
2022-09-03T19:57:04.340Z,20.75
2022-09-03T19:59:52.812Z,20.68
2022-09-03T20:02:38.832Z,20.72
2022-09-03T20:05:26.519Z,20.64
2022-09-03T20:08:13.230Z,20.52
2022-09-03T20:10:41.619Z,20.57
2022-09-03T20:13:09.880Z,20.51
2022-09-03T20:15:49.717Z,20.36
2022-09-03T20:18:20.946Z,20.40
2022-09-03T20:20:48.242Z,20.41
2022-09-03T20:23:30.482Z,20.24
2022-09-03T20:26:21.398Z,20.28
2022-09-03T20:28:49.228Z,20.19
2022-09-03T20:31:17.774Z,20.14
2022-09-03T20:33:48.368Z,19.95
2022-09-03T20:36:22.065Z,20.14
2022-09-03T20:39:08.568Z,19.95
2022-09-03T20:41:54.828Z,20.03
2022-09-03T20:44:28.774Z,20.09
2022-09-03T20:46:56.042Z,19.89
2022-09-03T20:49:42.658Z,19.94
2022-09-03T20:52:13.638Z,19.88
2022-09-03T20:54:44.743Z,19.66
2022-09-03T20:57:19.047Z,19.81
2022-09-03T21:00:05.110Z,19.72
2022-09-03T21:02:48.727Z,19.66
2022-09-03T21:05:17.955Z,19.69
2022-09-03T21:07:48.848Z,19.62
2022-09-03T21:10:22.435Z,19.56
2022-09-03T21:12:57.694Z,19.63
2022-09-03T21:15:29.058Z,19.47
2022-09-03T21:18:12.231Z,19.46
2022-09-03T21:21:15.413Z,19.30
2022-09-03T21:23:50.118Z,19.39
2022-09-03T21:26:17.815Z,19.31
2022-09-03T21:28:45.966Z,19.51
2022-09-03T21:31:19.252Z,19.37
2022-09-03T21:33:49.035Z,19.30
2022-09-03T21:36:17.447Z,19.43
2022-09-03T21:38:45.844Z,19.40
2022-09-03T21:41:40.423Z,19.43
2022-09-03T21:44:30.644Z,19.48
2022-09-03T21:46:59.291Z,19.50
2022-09-03T21:49:29.328Z,19.29
2022-09-03T21:51:57.616Z,19.32
2022-09-03T21:54:25.217Z,19.34
2022-09-03T21:57:12.490Z,19.01
2022-09-03T21:59:46.377Z,19.25
2022-09-03T22:02:17.224Z,19.17
2022-09-03T22:04:44.838Z,19.14
2022-09-03T22:07:31.201Z,19.07
2022-09-03T22:09:58.838Z,19.17
2022-09-03T22:12:26.137Z,18.90
2022-09-03T22:14:53.480Z,19.04
2022-09-03T22:17:34.431Z,19.01
2022-09-03T22:20:03.659Z,19.01
2022-09-03T22:22:43.972Z,18.82
2022-09-03T22:25:19.778Z,18.89
2022-09-03T22:27:50.062Z,18.90
2022-09-03T22:30:21.747Z,18.96
2022-09-03T22:33:05.743Z,18.80
2022-09-03T22:35:51.984Z,18.76
2022-09-03T22:38:19.741Z,18.76
2022-09-03T22:41:00.341Z,18.71
2022-09-03T22:43:27.851Z,18.82
2022-09-03T22:46:09.244Z,18.86
2022-09-03T22:48:41.509Z,18.81
2022-09-03T22:51:09.298Z,18.73
2022-09-03T22:53:39.884Z,18.82
2022-09-03T22:56:08.424Z,18.62
2022-09-03T22:58:41.846Z,18.88
2022-09-03T23:01:30.764Z,18.73
2022-09-03T23:04:18.373Z,18.78
2022-09-03T23:06:53.354Z,18.65
2022-09-03T23:09:25.310Z,18.66
2022-09-03T23:12:02.967Z,18.76
2022-09-03T23:14:51.412Z,18.71
2022-09-03T23:22:31.816Z,18.48
2022-09-03T23:25:19.648Z,18.59
2022-09-03T23:27:53.696Z,18.53
2022-09-03T23:30:21.476Z,18.56
2022-09-03T23:32:49.695Z,18.51
2022-09-03T23:35:18.206Z,18.47
2022-09-03T23:38:04.508Z,18.20
2022-09-03T23:40:46.186Z,18.30
2022-09-03T23:43:13.488Z,18.15
2022-09-03T23:45:51.185Z,18.22
2022-09-03T23:48:27.867Z,17.93
2022-09-03T23:51:10.872Z,18.14
2022-09-03T23:53:56.062Z,18.01
2022-09-03T23:56:37.549Z,18.16
2022-09-03T23:59:11.122Z,18.09
